Time;durP1;ratioP1;P1;durP2;ratioP2;P2;SDS_P1;SDS_P2;PMS_P1;PMS_P2;Temp;Humidity;BMP_temperature;BMP_pressure;BME280_temperature;BME280_humidity;BME280_pressure;Samples;Min_cycle;Max_cycle;Signal;HPM_P1;HPM_P2
2023/06/10 00:00:20;;;;;;;7.05;4.60;;;20.80;82.30;;;;;;5092967;28;20538;-82
2023/06/10 00:02:46;;;;;;;6.68;4.70;;;20.80;82.50;;;;;;5092769;28;20081;-82
2023/06/10 00:05:11;;;;;;;7.65;5.00;;;20.70;82.20;;;;;;5093733;28;20028;-83
2023/06/10 00:07:37;;;;;;;7.68;4.50;;;20.60;82.80;;;;;;5091744;28;20027;-83
2023/06/10 00:10:05;;;;;;;8.90;4.50;;;20.60;83.80;;;;;;5092854;28;20502;-83
2023/06/10 00:12:38;;;;;;;7.28;4.85;;;20.50;84.30;;;;;;5091907;28;20060;-82
2023/06/10 00:15:05;;;;;;;5.55;4.95;;;20.50;84.80;;;;;;5092810;28;20449;-83
2023/06/10 00:17:31;;;;;;;5.65;4.70;;;20.50;84.80;;;;;;5092060;28;20506;-83
2023/06/10 00:19:57;;;;;;;5.18;4.45;;;20.50;85.30;;;;;;5092347;28;20115;-83
2023/06/10 00:22:24;;;;;;;7.32;4.63;;;20.40;85.50;;;;;;5091533;28;20028;-83
2023/06/10 00:24:50;;;;;;;7.93;4.70;;;20.40;85.80;;;;;;5092348;28;20028;-83
2023/06/10 00:27:16;;;;;;;7.40;4.93;;;20.50;85.70;;;;;;5092310;28;20055;-79
2023/06/10 00:29:42;;;;;;;6.47;4.30;;;20.40;85.40;;;;;;5093076;28;20036;-83
2023/06/10 00:32:08;;;;;;;6.75;4.63;;;20.30;86.10;;;;;;5093276;28;20106;-83
2023/06/10 00:34:33;;;;;;;5.25;4.50;;;20.30;86.50;;;;;;5091935;28;20115;-83
2023/06/10 00:36:59;;;;;;;6.95;4.80;;;20.30;86.70;;;;;;5095942;28;20488;-83
2023/06/10 00:39:25;;;;;;;6.55;4.88;;;20.30;86.80;;;;;;5095465;28;20499;-83
2023/06/10 00:41:50;;;;;;;5.88;4.78;;;20.20;87.30;;;;;;5095952;28;20551;-83
2023/06/10 00:44:16;;;;;;;8.45;5.03;;;20.10;87.40;;;;;;5096293;28;20035;-82
2023/06/10 00:46:42;;;;;;;5.93;4.72;;;20.10;87.20;;;;;;5097099;28;20032;-82
2023/06/10 00:49:08;;;;;;;7.28;5.05;;;20.10;88.40;;;;;;5097039;28;20024;-83
2023/06/10 00:51:34;;;;;;;7.55;5.20;;;20.10;88.60;;;;;;5095458;28;20029;-83
2023/06/10 00:54:00;;;;;;;6.40;4.90;;;20.00;88.60;;;;;;5096195;28;20127;-83
2023/06/10 00:56:26;;;;;;;6.70;4.90;;;20.00;88.00;;;;;;5096931;28;20067;-83
2023/06/10 00:58:52;;;;;;;6.57;4.85;;;20.00;88.80;;;;;;5095651;28;20034;-83
2023/06/10 01:01:19;;;;;;;6.82;4.97;;;20.00;89.00;;;;;;5096492;28;20020;-79
2023/06/10 01:03:45;;;;;;;7.63;5.15;;;20.00;88.40;;;;;;5095555;28;20031;-83
2023/06/10 01:06:10;;;;;;;6.22;4.60;;;20.10;88.70;;;;;;5096954;28;20028;-83
2023/06/10 01:09:02;;;;;;;5.90;4.60;;;20.00;88.30;;;;;;5096552;28;20029;-83
2023/06/10 01:11:41;;;;;;;9.05;5.22;;;20.10;89.60;;;;;;5095606;28;20024;-83
2023/06/10 01:14:09;;;;;;;9.60;5.60;;;20.00;90.10;;;;;;5095907;28;20028;-84
2023/06/10 01:16:36;;;;;;;7.63;5.07;;;20.00;90.20;;;;;;5096227;28;20028;-82
2023/06/10 01:19:03;;;;;;;6.80;4.50;;;20.00;90.00;;;;;;5096512;28;20453;-83
2023/06/10 01:21:29;;;;;;;7.00;5.30;;;20.00;90.00;;;;;;5094929;28;20032;-83
2023/06/10 01:23:56;;;;;;;7.00;5.00;;;20.00;89.80;;;;;;5095393;28;20097;-83
2023/06/10 01:26:26;;;;;;;8.30;5.40;;;20.00;89.70;;;;;;5096229;28;20024;-77
2023/06/10 01:28:59;;;;;;;8.97;5.10;;;19.90;89.80;;;;;;5095844;28;20032;-83
2023/06/10 01:31:45;;;;;;;8.40;5.45;;;19.90;90.30;;;;;;5095250;28;20024;-82
2023/06/10 01:34:16;;;;;;;5.20;4.65;;;19.90;90.30;;;;;;5096756;28;20032;-83
2023/06/10 01:36:45;;;;;;;6.40;5.43;;;19.80;90.50;;;;;;5095120;28;20032;-83
2023/06/10 01:39:12;;;;;;;6.65;4.75;;;19.80;90.50;;;;;;5095374;28;20031;-83
2023/06/10 01:41:38;;;;;;;6.35;5.30;;;19.70;91.00;;;;;;5094943;28;20052;-83
2023/06/10 01:44:04;;;;;;;7.90;5.15;;;19.70;90.90;;;;;;5095949;28;20027;-83
2023/06/10 01:46:30;;;;;;;9.73;5.40;;;19.70;90.90;;;;;;5094520;28;20024;-83
2023/06/10 01:48:56;;;;;;;7.70;5.43;;;19.70;91.10;;;;;;5095265;28;20032;-84
2023/06/10 01:51:21;;;;;;;6.95;4.97;;;19.60;91.50;;;;;;5094898;28;20043;-83
2023/06/10 01:53:47;;;;;;;6.18;4.90;;;19.60;91.90;;;;;;5094938;28;20024;-83
2023/06/10 01:56:19;;;;;;;8.70;5.63;;;19.60;91.90;;;;;;5096331;28;20024;-83
2023/06/10 01:58:45;;;;;;;6.57;5.32;;;19.40;92.40;;;;;;5095276;28;20027;-83
2023/06/10 02:01:11;;;;;;;6.95;5.22;;;19.40;92.60;;;;;;5094694;28;20032;-83
2023/06/10 02:03:36;;;;;;;7.13;5.32;;;19.30;92.90;;;;;;5094340;28;20024;-83
2023/06/10 02:06:02;;;;;;;8.82;5.30;;;19.30;92.90;;;;;;5094769;28;20044;-83
2023/06/10 02:08:27;;;;;;;5.75;5.15;;;19.30;93.10;;;;;;5094078;28;20032;-82
2023/06/10 02:10:53;;;;;;;7.63;5.38;;;19.20;93.30;;;;;;5095830;28;20476;-83
2023/06/10 02:13:19;;;;;;;6.45;5.38;;;19.20;93.50;;;;;;5094846;28;20111;-83
2023/06/10 02:15:45;;;;;;;8.35;5.43;;;19.10;93.90;;;;;;5094123;28;20043;-82
2023/06/10 02:18:11;;;;;;;6.28;5.63;;;19.10;94.20;;;;;;5096048;28;20035;-83
2023/06/10 02:20:38;;;;;;;8.13;4.90;;;19.00;94.40;;;;;;5094917;28;20020;-82
2023/06/10 02:23:03;;;;;;;6.18;5.35;;;18.90;94.40;;;;;;5095771;28;20086;-83
2023/06/10 02:25:29;;;;;;;6.80;5.43;;;18.90;94.60;;;;;;5094960;28;20111;-82
2023/06/10 02:27:55;;;;;;;7.38;5.75;;;18.90;94.60;;;;;;5095126;28;20028;-83
2023/06/10 02:30:20;;;;;;;6.78;5.22;;;18.80;94.90;;;;;;5095451;28;20078;-83
2023/06/10 02:32:47;;;;;;;7.70;5.53;;;18.80;95.20;;;;;;5094904;28;20028;-83
2023/06/10 02:35:14;;;;;;;9.00;5.93;;;18.90;95.40;;;;;;5094404;28;20028;-83
2023/06/10 02:37:40;;;;;;;8.68;5.93;;;18.80;95.60;;;;;;5094810;28;20537;-83
2023/06/10 02:40:06;;;;;;;6.82;5.60;;;18.80;95.80;;;;;;5095139;28;20063;-82
2023/06/10 02:42:32;;;;;;;6.25;5.20;;;18.70;96.00;;;;;;5092927;28;20093;-82
2023/06/10 02:44:58;;;;;;;7.35;5.60;;;18.70;96.40;;;;;;5094882;28;20025;-83
2023/06/10 02:47:23;;;;;;;7.38;5.57;;;18.60;96.30;;;;;;5094112;28;20054;-81
2023/06/10 02:49:49;;;;;;;7.78;5.28;;;18.60;96.40;;;;;;5094578;28;20110;-82
2023/06/10 02:52:14;;;;;;;6.97;5.57;;;18.60;96.40;;;;;;5093840;28;20050;-83
2023/06/10 02:54:40;;;;;;;7.28;5.18;;;18.60;96.40;;;;;;5094505;28;20024;-82
2023/06/10 02:57:06;;;;;;;6.88;5.30;;;18.60;96.70;;;;;;5094148;28;20096;-82
2023/06/10 02:59:31;;;;;;;9.70;5.38;;;18.60;96.50;;;;;;5093295;28;20031;-82
2023/06/10 03:01:57;;;;;;;7.18;5.07;;;18.60;96.50;;;;;;5094464;28;20024;-82
2023/06/10 03:04:25;;;;;;;6.25;4.75;;;18.70;96.40;;;;;;5093382;28;20024;-83
2023/06/10 03:06:50;;;;;;;7.00;4.80;;;18.70;96.60;;;;;;5094450;28;20023;-83
2023/06/10 03:09:16;;;;;;;7.13;5.32;;;18.70;96.70;;;;;;5094816;28;20492;-83
2023/06/10 03:11:42;;;;;;;5.40;4.63;;;18.70;96.70;;;;;;5094254;28;20086;-82
2023/06/10 03:14:07;;;;;;;7.80;5.25;;;18.70;97.10;;;;;;5093494;28;20028;-83
2023/06/10 03:16:33;;;;;;;9.43;5.70;;;18.60;97.20;;;;;;5092752;28;20483;-82
2023/06/10 03:18:58;;;;;;;6.82;4.78;;;18.60;97.50;;;;;;5093670;28;20020;-83
2023/06/10 03:21:24;;;;;;;6.30;5.22;;;18.60;97.70;;;;;;5094175;28;20103;-83
2023/06/10 03:23:50;;;;;;;7.30;5.40;;;18.50;97.80;;;;;;5092871;28;20461;-83
2023/06/10 03:26:16;;;;;;;7.70;5.10;;;18.60;97.80;;;;;;5093389;28;20497;-83
2023/06/10 03:28:42;;;;;;;7.50;5.10;;;18.60;98.00;;;;;;5093734;28;20092;-82
2023/06/10 03:31:07;;;;;;;5.90;5.07;;;18.60;98.00;;;;;;5094418;28;20059;-82
2023/06/10 03:33:33;;;;;;;8.40;5.40;;;18.50;98.10;;;;;;5093455;28;20107;-82
2023/06/10 03:35:59;;;;;;;7.57;5.50;;;18.50;98.00;;;;;;5093415;28;20020;-82
2023/06/10 03:38:25;;;;;;;6.93;5.20;;;18.40;98.00;;;;;;5094254;28;20028;-83
2023/06/10 03:40:50;;;;;;;6.60;4.88;;;18.40;98.20;;;;;;5092526;28;20059;-83
2023/06/10 03:43:16;;;;;;;8.63;5.07;;;18.40;98.50;;;;;;5093431;28;20039;-83
2023/06/10 03:45:42;;;;;;;7.63;4.78;;;18.50;98.60;;;;;;5093591;28;20158;-82
2023/06/10 03:48:08;;;;;;;6.45;5.20;;;18.40;98.30;;;;;;5093821;28;20469;-82
2023/06/10 03:50:34;;;;;;;5.85;4.95;;;18.50;98.20;;;;;;5093462;28;20020;-82
2023/06/10 03:53:00;;;;;;;6.70;4.80;;;18.50;98.00;;;;;;5094236;28;20086;-83
2023/06/10 03:55:26;;;;;;;7.90;5.22;;;18.60;98.00;;;;;;5094294;28;20028;-83
2023/06/10 03:57:51;;;;;;;7.47;5.22;;;18.50;98.00;;;;;;5092269;28;20389;-83
2023/06/10 04:00:18;;;;;;;6.85;5.18;;;18.60;98.50;;;;;;5093995;28;20020;-82
2023/06/10 04:02:49;;;;;;;7.35;5.03;;;18.50;99.00;;;;;;5092408;28;20025;-83
2023/06/10 04:05:16;;;;;;;6.45;5.35;;;18.40;99.20;;;;;;5093114;28;20028;-82
2023/06/10 04:07:43;;;;;;;6.22;4.90;;;18.30;99.60;;;;;;5092318;28;20036;-83
2023/06/10 04:10:12;;;;;;;9.73;5.22;;;18.20;99.90;;;;;;5095813;28;20028;-83
2023/06/10 04:12:38;;;;;;;7.00;5.57;;;18.20;99.90;;;;;;5096348;28;20059;-82
2023/06/10 04:15:05;;;;;;;7.93;5.85;;;18.20;99.90;;;;;;5098209;28;20024;-82
2023/06/10 04:17:31;;;;;;;8.20;5.20;;;18.20;99.90;;;;;;5096661;28;20028;-80
2023/06/10 04:19:57;;;;;;;7.00;5.18;;;18.20;99.90;;;;;;5096674;28;20073;-82
2023/06/10 04:22:24;;;;;;;6.30;4.90;;;18.20;99.90;;;;;;5097377;28;20032;-82
2023/06/10 04:24:49;;;;;;;7.68;5.05;;;18.30;99.90;;;;;;5096478;28;20020;-82
2023/06/10 04:27:15;;;;;;;6.72;5.07;;;18.30;99.90;;;;;;5097734;28;20370;-82
2023/06/10 04:29:41;;;;;;;7.40;5.32;;;18.30;99.90;;;;;;5097460;28;20032;-82
2023/06/10 04:32:07;;;;;;;7.22;5.07;;;18.40;99.90;;;;;;5096885;28;20055;-82
2023/06/10 04:34:33;;;;;;;6.85;5.22;;;18.40;99.90;;;;;;5096491;28;20537;-80
2023/06/10 04:36:59;;;;;;;5.82;5.05;;;18.40;99.90;;;;;;5096429;28;20028;-83
2023/06/10 04:39:25;;;;;;;5.93;4.95;;;18.40;99.90;;;;;;5096514;28;20495;-83
2023/06/10 04:41:50;;;;;;;7.18;5.30;;;18.40;99.90;;;;;;5095650;28;20530;-82
2023/06/10 04:44:16;;;;;;;5.95;4.85;;;18.40;99.90;;;;;;5097482;28;20476;-82
2023/06/10 04:46:41;;;;;;;8.18;4.75;;;18.40;99.90;;;;;;5096887;28;20106;-82
2023/06/10 04:49:07;;;;;;;7.28;5.05;;;18.50;99.90;;;;;;5096296;28;20039;-83
2023/06/10 04:51:33;;;;;;;5.95;4.72;;;18.50;99.70;;;;;;5096262;28;20043;-79
2023/06/10 04:54:02;;;;;;;6.60;4.35;;;18.50;99.90;;;;;;5096079;28;20110;-82
2023/06/10 04:56:28;;;;;;;6.63;4.90;;;18.50;99.90;;;;;;5097262;28;20465;-82
2023/06/10 04:58:54;;;;;;;5.70;4.85;;;18.60;99.90;;;;;;5095336;28;20282;-82
2023/06/10 05:01:19;;;;;;;7.28;4.68;;;18.60;99.90;;;;;;5096746;28;20553;-82
2023/06/10 05:03:45;;;;;;;6.45;4.40;;;18.60;99.80;;;;;;5095408;28;20025;-82
2023/06/10 05:06:10;;;;;;;5.13;4.60;;;18.70;99.90;;;;;;5095621;28;20111;-83
2023/06/10 05:08:36;;;;;;;5.75;4.45;;;18.70;99.90;;;;;;5095296;28;20036;-82
2023/06/10 05:11:02;;;;;;;6.28;4.65;;;18.70;99.90;;;;;;5096198;28;20024;-82
2023/06/10 05:13:27;;;;;;;5.45;4.70;;;18.70;99.90;;;;;;5096012;28;20525;-83
2023/06/10 05:15:53;;;;;;;6.28;4.63;;;18.80;99.70;;;;;;5096406;28;20020;-83
2023/06/10 05:18:18;;;;;;;6.10;4.10;;;18.80;99.90;;;;;;5095657;28;20095;-82
2023/06/10 05:20:44;;;;;;;4.93;4.32;;;18.80;99.80;;;;;;5094510;28;20384;-82
2023/06/10 05:23:09;;;;;;;5.97;4.85;;;18.90;99.70;;;;;;5096401;28;20039;-82
2023/06/10 05:25:35;;;;;;;4.78;4.30;;;18.90;99.50;;;;;;5096165;28;20024;-79
2023/06/10 05:28:02;;;;;;;6.65;4.43;;;18.90;99.70;;;;;;5096215;28;20024;-82
2023/06/10 05:30:27;;;;;;;6.28;4.88;;;19.00;99.70;;;;;;5096554;28;20028;-82
2023/06/10 05:32:53;;;;;;;6.60;4.50;;;19.00;99.80;;;;;;5102318;27;20492;-82
2023/06/10 05:35:19;;;;;;;4.88;4.20;;;19.10;99.70;;;;;;5120251;27;20072;-82
2023/06/10 05:37:45;;;;;;;5.63;4.47;;;19.10;99.50;;;;;;5122753;27;20031;-82
2023/06/10 05:40:11;;;;;;;8.18;4.47;;;19.10;99.50;;;;;;5114245;28;20171;-81
2023/06/10 05:42:36;;;;;;;6.13;4.60;;;19.20;99.30;;;;;;5113741;28;20032;-80
2023/06/10 05:45:03;;;;;;;5.88;4.38;;;19.20;99.50;;;;;;5117488;27;20107;-81
2023/06/10 05:47:28;;;;;;;5.90;4.78;;;19.20;99.60;;;;;;5133744;27;20083;-82
2023/06/10 05:49:54;;;;;;;7.72;5.05;;;19.30;99.50;;;;;;5134607;27;20467;-82
2023/06/10 05:52:20;;;;;;;7.32;4.85;;;19.30;99.30;;;;;;5129309;27;20035;-81
2023/06/10 05:54:46;;;;;;;5.60;4.60;;;19.30;99.40;;;;;;5113771;28;20384;-82
2023/06/10 05:57:11;;;;;;;5.47;4.40;;;19.40;99.20;;;;;;5134524;27;20034;-82
2023/06/10 05:59:37;;;;;;;6.28;4.15;;;19.40;99.70;;;;;;5129038;27;20024;-79
2023/06/10 06:02:03;;;;;;;5.28;4.65;;;19.40;99.80;;;;;;5124917;27;20023;-83
2023/06/10 06:04:28;;;;;;;6.80;4.65;;;19.50;99.90;;;;;;5134915;27;20460;-82
2023/06/10 06:06:54;;;;;;;7.25;4.70;;;19.50;99.90;;;;;;5133607;27;20027;-82
2023/06/10 06:09:20;;;;;;;5.65;4.38;;;19.60;99.80;;;;;;5115600;28;20108;-82
2023/06/10 06:11:46;;;;;;;5.55;4.25;;;19.60;99.50;;;;;;5121623;27;20066;-81
2023/06/10 06:14:11;;;;;;;5.82;4.32;;;19.70;99.30;;;;;;5123319;27;20380;-82
2023/06/10 06:16:37;;;;;;;5.32;4.20;;;19.80;99.50;;;;;;5130566;27;20031;-79
2023/06/10 06:19:02;;;;;;;5.95;4.15;;;19.80;99.30;;;;;;5117820;27;20028;-82
2023/06/10 06:21:28;;;;;;;6.20;3.80;;;19.90;99.00;;;;;;5130376;27;20038;-82
2023/06/10 06:23:53;;;;;;;4.93;4.25;;;19.90;98.60;;;;;;5122562;27;20116;-82
2023/06/10 06:26:19;;;;;;;5.65;3.88;;;20.00;99.00;;;;;;5134266;27;20543;-81
2023/06/10 06:28:44;;;;;;;5.35;3.97;;;20.00;98.80;;;;;;5117534;27;20034;-82
2023/06/10 06:31:10;;;;;;;4.38;3.88;;;20.00;99.10;;;;;;5113753;28;20030;-81
2023/06/10 06:33:36;;;;;;;5.75;4.20;;;20.10;99.30;;;;;;5118560;27;20054;-80
2023/06/10 06:36:02;;;;;;;5.20;3.97;;;20.20;99.00;;;;;;5123610;27;20517;-82
2023/06/10 06:38:39;;;;;;;4.65;3.65;;;20.20;98.70;;;;;;5121537;27;20068;-82
2023/06/10 06:41:06;;;;;;;6.60;3.63;;;20.20;98.70;;;;;;5130229;27;20503;-81
2023/06/10 06:43:32;;;;;;;5.55;3.75;;;20.30;98.60;;;;;;5120449;27;20030;-81
2023/06/10 06:45:58;;;;;;;4.47;3.70;;;20.40;98.20;;;;;;5133765;27;20172;-82
2023/06/10 06:48:23;;;;;;;5.32;3.75;;;20.50;98.30;;;;;;5135524;27;20059;-82
2023/06/10 06:50:49;;;;;;;5.93;3.70;;;20.50;98.10;;;;;;5117897;27;20028;-81
2023/06/10 06:53:15;;;;;;;5.93;3.83;;;20.50;98.00;;;;;;5126116;27;20046;-82
2023/06/10 06:55:40;;;;;;;5.07;3.80;;;20.60;98.20;;;;;;5114563;28;20441;-78
2023/06/10 06:58:06;;;;;;;5.05;3.58;;;20.60;98.30;;;;;;5116068;27;20036;-82
2023/06/10 07:00:32;;;;;;;5.60;3.80;;;20.60;98.00;;;;;;5127875;27;20030;-81
2023/06/10 07:02:58;;;;;;;4.22;3.80;;;20.60;98.20;;;;;;5117119;27;20062;-82
2023/06/10 07:05:27;;;;;;;4.55;3.75;;;20.70;98.30;;;;;;5129893;27;20482;-82
2023/06/10 07:07:54;;;;;;;5.25;4.03;;;20.70;98.30;;;;;;5113018;27;20043;-82
2023/06/10 07:10:24;;;;;;;5.10;3.60;;;20.80;98.20;;;;;;5127099;27;20019;-82
2023/06/10 07:12:50;;;;;;;4.88;3.80;;;20.80;98.60;;;;;;5116668;27;20031;-80
2023/06/10 07:15:16;;;;;;;4.07;3.63;;;20.90;98.30;;;;;;5100242;27;20352;-82
2023/06/10 07:17:41;;;;;;;5.13;3.70;;;21.00;98.30;;;;;;5126501;27;20107;-82
2023/06/10 07:20:07;;;;;;;4.82;3.63;;;21.00;98.20;;;;;;5124324;27;20107;-82
2023/06/10 07:22:33;;;;;;;6.13;3.95;;;21.00;98.10;;;;;;5134590;27;20036;-82
2023/06/10 07:24:58;;;;;;;4.65;3.55;;;21.10;98.10;;;;;;5115753;27;20024;-80
2023/06/10 07:27:24;;;;;;;4.75;3.70;;;21.10;97.80;;;;;;5128794;27;20035;-82
2023/06/10 07:29:51;;;;;;;4.30;3.30;;;21.20;97.70;;;;;;5112596;28;20035;-82
2023/06/10 07:32:17;;;;;;;5.20;3.47;;;21.20;98.00;;;;;;5114354;28;20032;-82
2023/06/10 07:34:43;;;;;;;7.10;3.60;;;21.30;97.80;;;;;;5129414;27;20383;-82
2023/06/10 07:37:08;;;;;;;5.13;3.67;;;21.30;97.60;;;;;;5116286;27;20039;-81
2023/06/10 07:39:34;;;;;;;4.40;3.40;;;21.30;97.70;;;;;;5133608;27;20020;-82
2023/06/10 07:42:00;;;;;;;4.60;3.83;;;21.30;97.90;;;;;;5123995;27;20079;-82
2023/06/10 07:44:26;;;;;;;7.43;3.97;;;21.40;98.00;;;;;;5127294;27;20038;-82
2023/06/10 07:46:52;;;;;;;5.00;4.10;;;21.40;97.60;;;;;;5116604;27;20027;-82
2023/06/10 07:49:17;;;;;;;5.25;3.78;;;21.50;97.70;;;;;;5130505;27;20457;-82
2023/06/10 07:51:43;;;;;;;5.55;3.95;;;21.50;97.70;;;;;;5119706;28;20034;-81
2023/06/10 07:54:09;;;;;;;6.43;4.00;;;21.60;97.50;;;;;;5126339;28;20027;-82
2023/06/10 07:56:34;;;;;;;4.57;3.25;;;21.60;97.40;;;;;;5118455;28;20066;-82
2023/06/10 07:59:00;;;;;;;4.25;3.33;;;21.70;97.50;;;;;;5129003;28;20027;-82
2023/06/10 08:01:25;;;;;;;6.22;3.72;;;21.70;97.20;;;;;;5112815;28;20183;-83
2023/06/10 08:03:51;;;;;;;5.18;3.28;;;21.70;97.30;;;;;;5121688;28;20035;-82
2023/06/10 08:06:17;;;;;;;4.00;3.50;;;21.80;97.10;;;;;;5122244;28;20047;-83
2023/06/10 08:08:43;;;;;;;3.97;3.17;;;21.90;97.00;;;;;;5113855;28;20027;-82
2023/06/10 08:11:13;;;;;;;4.05;3.25;;;21.80;97.20;;;;;;5129771;28;20468;-82
2023/06/10 08:13:39;;;;;;;4.10;3.30;;;21.90;97.20;;;;;;5119460;28;20050;-82
2023/06/10 08:16:05;;;;;;;4.07;3.50;;;22.00;96.80;;;;;;5122244;28;20540;-82
2023/06/10 08:18:31;;;;;;;4.40;3.80;;;22.00;97.10;;;;;;5126772;28;20110;-82
2023/06/10 08:20:57;;;;;;;6.70;3.42;;;22.10;97.70;;;;;;5117097;28;20054;-82
2023/06/10 08:23:23;;;;;;;3.67;3.35;;;22.10;97.00;;;;;;5128300;28;20092;-82
2023/06/10 08:25:48;;;;;;;4.18;3.50;;;22.20;96.80;;;;;;5120079;28;20023;-82
2023/06/10 08:28:14;;;;;;;4.40;3.40;;;22.20;96.50;;;;;;5122195;28;20024;-81
2023/06/10 08:30:40;;;;;;;3.65;3.33;;;22.20;96.30;;;;;;5128100;28;20127;-82
2023/06/10 08:33:06;;;;;;;4.13;3.45;;;22.20;96.50;;;;;;5110827;28;20388;-82
2023/06/10 08:35:31;;;;;;;4.75;3.22;;;22.20;96.60;;;;;;5126632;28;20047;-82
2023/06/10 08:37:57;;;;;;;5.15;3.42;;;22.30;96.20;;;;;;5120402;28;20035;-82
2023/06/10 08:40:22;;;;;;;3.80;3.33;;;22.30;95.90;;;;;;5119136;28;20468;-82
2023/06/10 08:43:02;;;;;;;5.28;3.65;;;22.40;96.70;;;;;;5127925;28;20118;-82
2023/06/10 08:45:35;;;;;;;4.00;3.28;;;22.40;96.00;;;;;;5092721;28;20201;-81
2023/06/10 08:48:07;;;;;;;4.00;3.47;;;22.50;96.30;;;;;;5104734;28;20043;-82
2023/06/10 08:50:37;;;;;;;4.05;3.50;;;22.60;96.00;;;;;;5113217;28;20035;-82
2023/06/10 08:53:06;;;;;;;7.80;3.28;;;22.60;96.10;;;;;;5115266;28;20114;-82
2023/06/10 08:56:00;;;;;;;5.80;3.67;;;22.70;96.10;;;;;;5111782;28;20020;-82
2023/06/10 08:58:27;;;;;;;4.13;3.55;;;22.70;96.00;;;;;;5113170;27;20043;-82
2023/06/10 09:00:53;;;;;;;5.72;3.83;;;22.70;95.60;;;;;;5115496;27;20030;-82
2023/06/10 09:03:20;;;;;;;4.50;3.70;;;22.80;95.40;;;;;;5125440;27;20031;-82
2023/06/10 09:05:46;;;;;;;3.85;3.45;;;22.90;95.40;;;;;;5127509;27;20027;-82
2023/06/10 09:08:13;;;;;;;4.07;3.10;;;23.00;95.30;;;;;;5128641;27;20113;-83
2023/06/10 09:10:40;;;;;;;3.58;3.20;;;23.00;95.30;;;;;;5120796;27;20039;-83
2023/06/10 09:13:05;;;;;;;5.35;3.38;;;23.10;95.20;;;;;;5134477;27;20027;-83
2023/06/10 09:15:31;;;;;;;4.63;3.70;;;23.20;95.40;;;;;;5132767;27;20052;-82
2023/06/10 09:17:57;;;;;;;4.32;3.63;;;23.20;95.50;;;;;;5115914;27;20032;-82
2023/06/10 09:20:23;;;;;;;5.88;3.63;;;23.20;94.70;;;;;;5116240;28;20023;-82
2023/06/10 09:22:49;;;;;;;4.47;3.88;;;23.30;94.80;;;;;;5114737;28;20491;-83
2023/06/10 09:25:15;;;;;;;6.70;3.70;;;23.30;94.60;;;;;;5117495;28;20038;-83
2023/06/10 09:27:49;;;;;;;6.97;3.65;;;23.30;95.00;;;;;;5117300;27;20118;-79
2023/06/10 09:30:31;;;;;;;4.20;3.33;;;23.40;94.80;;;;;;5116918;28;20031;-83
2023/06/10 09:32:59;;;;;;;4.57;3.65;;;23.40;94.70;;;;;;5124564;27;20016;-82
2023/06/10 09:35:28;;;;;;;5.20;3.55;;;23.50;94.60;;;;;;5133063;27;20392;-82
2023/06/10 09:37:56;;;;;;;4.57;3.70;;;23.60;94.10;;;;;;5125151;27;20031;-82
2023/06/10 09:40:22;;;;;;;4.97;3.90;;;23.60;94.40;;;;;;5124593;27;20110;-83
2023/06/10 09:42:56;;;;;;;5.25;3.83;;;23.70;94.60;;;;;;5115680;28;20114;-82
2023/06/10 09:45:23;;;;;;;6.82;3.88;;;23.70;94.40;;;;;;5106270;27;20514;-83
2023/06/10 09:47:53;;;;;;;3.97;3.58;;;23.70;94.40;;;;;;5129052;27;20085;-83
2023/06/10 09:50:19;;;;;;;6.35;4.03;;;23.70;93.80;;;;;;5115236;28;20031;-83
2023/06/10 09:52:47;;;;;;;4.32;3.60;;;23.80;93.90;;;;;;5130136;27;20043;-82
2023/06/10 09:55:13;;;;;;;5.30;4.10;;;23.80;93.90;;;;;;5119094;27;20095;-82
2023/06/10 09:57:41;;;;;;;5.10;3.78;;;23.90;93.20;;;;;;5129255;27;20411;-83
2023/06/10 10:00:10;;;;;;;4.22;3.83;;;23.90;93.50;;;;;;5125535;27;20027;-82
2023/06/10 10:02:53;;;;;;;5.53;3.58;;;23.90;93.70;;;;;;5119662;27;20059;-82
2023/06/10 10:05:21;;;;;;;6.40;3.70;;;23.90;93.50;;;;;;5102094;27;20029;-82
2023/06/10 10:07:47;;;;;;;4.60;3.83;;;24.00;92.90;;;;;;5135179;27;20084;-83
2023/06/10 10:10:20;;;;;;;5.25;3.95;;;24.10;93.60;;;;;;5117072;27;20074;-83
2023/06/10 10:12:55;;;;;;;3.90;3.47;;;24.10;93.10;;;;;;5118265;27;20055;-81
2023/06/10 10:15:22;;;;;;;4.38;3.97;;;24.20;93.10;;;;;;5103026;27;20035;-82
2023/06/10 10:17:59;;;;;;;4.70;3.88;;;24.30;91.90;;;;;;5125968;27;20054;-82
2023/06/10 10:20:29;;;;;;;4.60;3.63;;;24.30;91.40;;;;;;5127930;27;20080;-82
2023/06/10 10:22:57;;;;;;;4.72;3.90;;;24.40;91.90;;;;;;5116308;27;20094;-81
2023/06/10 10:25:29;;;;;;;6.13;3.88;;;24.40;92.10;;;;;;5120143;27;20027;-82
2023/06/10 10:28:02;;;;;;;4.03;3.22;;;24.50;92.30;;;;;;5125424;27;20031;-82
2023/06/10 10:30:32;;;;;;;4.78;3.30;;;24.60;91.20;;;;;;5121064;27;20125;-83
2023/06/10 10:33:04;;;;;;;4.47;3.70;;;24.60;91.20;;;;;;5115201;27;20023;-81
2023/06/10 10:35:33;;;;;;;5.15;3.67;;;24.70;91.30;;;;;;5106689;27;20019;-83
2023/06/10 10:37:58;;;;;;;3.67;3.38;;;24.80;91.20;;;;;;5124447;27;20023;-82
2023/06/10 10:40:26;;;;;;;8.18;3.38;;;24.80;91.10;;;;;;5128689;27;20058;-83
2023/06/10 10:42:53;;;;;;;5.47;3.67;;;24.90;91.00;;;;;;5134898;27;20023;-83
2023/06/10 10:45:19;;;;;;;3.97;3.58;;;24.90;90.20;;;;;;5118661;27;20023;-82
2023/06/10 10:47:46;;;;;;;4.63;3.45;;;24.90;90.20;;;;;;5134021;27;20061;-82
2023/06/10 10:50:18;;;;;;;4.40;3.15;;;25.00;88.00;;;;;;5135087;27;20027;-82
2023/06/10 10:52:55;;;;;;;3.80;3.13;;;25.10;88.00;;;;;;5118873;27;20057;-82
2023/06/10 10:55:22;;;;;;;5.00;3.30;;;25.20;87.20;;;;;;5112753;28;20044;-83
2023/06/10 10:58:16;;;;;;;4.63;2.83;;;25.30;88.50;;;;;;5121096;27;20027;-82
2023/06/10 11:00:45;;;;;;;4.95;3.20;;;25.30;89.00;;;;;;5115829;27;20039;-79
2023/06/10 11:03:17;;;;;;;4.75;3.13;;;25.40;87.80;;;;;;5113210;27;20051;-82
2023/06/10 11:05:49;;;;;;;4.95;3.65;;;25.40;87.30;;;;;;5121980;27;20092;-82
2023/06/10 11:08:34;;;;;;;;;;;25.40;88.40;;;;;;5134947;27;20030;-82
2023/06/10 11:11:00;;;;;;;3.85;3.10;;;25.50;86.80;;;;;;5105535;28;19907;-82
2023/06/10 11:13:27;;;;;;;3.58;3.00;;;25.60;86.80;;;;;;5119534;27;20019;-82
2023/06/10 11:15:57;;;;;;;3.78;3.38;;;25.60;86.00;;;;;;5134400;27;20043;-82
2023/06/10 11:18:24;;;;;;;5.53;3.50;;;25.60;86.40;;;;;;5120648;27;20038;-81
2023/06/10 11:20:50;;;;;;;3.75;3.08;;;25.60;87.00;;;;;;5112376;28;20028;-82
2023/06/10 11:23:28;;;;;;;3.75;3.22;;;25.70;86.70;;;;;;5129734;27;20054;-83
2023/06/10 11:26:26;;;;;;;6.03;3.22;;;25.80;86.60;;;;;;5121457;27;20506;-82
2023/06/10 11:28:55;;;;;;;5.50;3.58;;;25.80;86.40;;;;;;5105582;27;20036;-82
2023/06/10 11:31:27;;;;;;;3.80;2.97;;;25.90;86.80;;;;;;5129716;27;20423;-82
2023/06/10 11:33:57;;;;;;;4.72;3.08;;;25.90;83.50;;;;;;5122168;27;20106;-82
2023/06/10 11:36:24;;;;;;;6.55;2.88;;;26.00;84.00;;;;;;5134713;27;20044;-82
2023/06/10 11:38:55;;;;;;;7.28;3.00;;;26.00;83.50;;;;;;5129242;27;20050;-82
2023/06/10 11:41:21;;;;;;;4.07;3.00;;;26.00;84.40;;;;;;5119002;28;20058;-82
2023/06/10 11:43:47;;;;;;;3.95;2.60;;;26.10;84.90;;;;;;5125371;27;20032;-82
2023/06/10 11:46:14;;;;;;;5.50;3.03;;;26.20;82.60;;;;;;5124466;27;20148;-83
2023/06/10 11:48:48;;;;;;;3.40;3.10;;;26.20;81.90;;;;;;5118948;27;20066;-83
2023/06/10 11:51:14;;;;;;;3.85;3.08;;;26.20;82.70;;;;;;5129724;27;20036;-83
2023/06/10 11:53:39;;;;;;;3.72;3.30;;;26.30;81.40;;;;;;5119173;28;20027;-82
2023/06/10 11:56:05;;;;;;;4.68;2.72;;;26.40;80.60;;;;;;5123895;28;20023;-83
2023/06/10 11:58:31;;;;;;;4.72;3.00;;;26.40;79.00;;;;;;5118944;28;20492;-82
2023/06/10 12:00:58;;;;;;;5.40;2.90;;;26.50;78.40;;;;;;5131139;28;20035;-82
2023/06/10 12:03:24;;;;;;;4.38;2.75;;;26.50;80.00;;;;;;5118207;28;20051;-83
2023/06/10 12:06:01;;;;;;;3.13;2.83;;;26.50;80.80;;;;;;5121484;28;20023;-83
2023/06/10 12:08:27;;;;;;;3.83;3.05;;;26.70;79.40;;;;;;5119678;28;20035;-83
2023/06/10 12:10:54;;;;;;;3.33;2.85;;;26.70;77.10;;;;;;5113836;28;20028;-83
2023/06/10 12:13:20;;;;;;;3.58;2.83;;;26.80;78.70;;;;;;5112496;28;20024;-82
2023/06/10 12:15:46;;;;;;;4.40;3.17;;;26.80;80.80;;;;;;5130563;28;20019;-79
2023/06/10 12:18:21;;;;;;;3.63;3.00;;;26.90;79.80;;;;;;5134299;28;20073;-82
2023/06/10 12:20:48;;;;;;;4.25;2.75;;;27.10;79.70;;;;;;5115443;28;20101;-81
2023/06/10 12:23:15;;;;;;;3.72;2.72;;;27.20;80.10;;;;;;5115933;28;20077;-82
2023/06/10 12:25:53;;;;;;;3.38;3.08;;;27.10;78.40;;;;;;5132534;28;20023;-82
2023/06/10 12:28:26;;;;;;;3.10;2.80;;;27.20;78.70;;;;;;5121336;28;20107;-83
2023/06/10 12:31:07;;;;;;;2.97;2.67;;;27.10;77.30;;;;;;5113946;28;20469;-83
2023/06/10 12:33:33;;;;;;;8.07;2.67;;;27.10;77.10;;;;;;5115984;27;20050;-83
2023/06/10 12:35:58;;;;;;;3.05;2.55;;;27.20;77.60;;;;;;5136042;27;20499;-82
2023/06/10 12:38:27;;;;;;;3.50;2.78;;;27.40;77.40;;;;;;5136907;27;20468;-82
2023/06/10 12:40:53;;;;;;;3.28;2.75;;;27.50;75.50;;;;;;5136243;27;20047;-82
2023/06/10 12:43:30;;;;;;;3.17;2.67;;;27.60;75.40;;;;;;5136756;27;20023;-82
2023/06/10 12:46:09;;;;;;;2.83;2.40;;;27.70;75.90;;;;;;5137121;27;20046;-82
2023/06/10 12:48:34;;;;;;;4.72;2.80;;;27.90;74.60;;;;;;5137129;27;20043;-82